Malmo, Sweden
Current Conditions -  °F | °C
As of 1:20 AM on Saturday 25 Oct 2014 (Local Time) from EKCH Reporting Station
Broken Clouds Broken Clouds  
Wind Chill: 11°   Ceiling: 1200
Heat Index: 11°   Visibility: 6mi
Dew Point:   Wind: 20mph
Humidity: 88%   Direction: 190°S
Pressure: 30.06"   Gusts: NA
Location:  55.6°N, 13°E
Report Text: EKCH 242320Z 19017KT 9999 BKN012 11/09 Q1018 TEMPO SCT012
Loading
Personal Weather Stations






























Interactive Weather Map
Tropical Storm Tracking
New forecast layout! Learn more

10-Day Weather Forecast

Advertisements
Track Severe Weather on mobile